createdAt,value
2022-12-17T00:00:27.936Z,-16756.09
2022-12-17T00:01:50.084Z,-16756.56
2022-12-17T00:03:17.354Z,-17070.53
2022-12-17T00:04:39.045Z,-16754.03
2022-12-17T00:06:00.771Z,-16755.13
2022-12-17T00:07:22.370Z,-17071.00
2022-12-17T00:08:44.095Z,-17072.78
2022-12-17T00:10:05.695Z,-17072.28
2022-12-17T00:11:27.297Z,-17071.00
2022-12-17T00:12:49.020Z,-17070.03
2022-12-17T00:14:10.743Z,-17068.59
2022-12-17T00:15:32.342Z,-17382.69
2022-12-17T00:16:54.065Z,-17381.03
2022-12-17T00:18:26.350Z,-17693.91
2022-12-17T00:19:48.191Z,-17378.25
2022-12-17T00:21:17.356Z,-18009.75
2022-12-17T00:22:38.836Z,-17378.91
2022-12-17T00:24:00.320Z,-17379.41
2022-12-17T00:25:21.558Z,-17378.09
2022-12-17T00:26:42.802Z,-17378.25
2022-12-17T00:28:03.804Z,-17379.41
2022-12-17T00:29:35.728Z,-17377.78
2022-12-17T00:30:56.736Z,-17379.41
2022-12-17T00:32:18.261Z,-17061.34
2022-12-17T00:33:39.396Z,-17378.09
2022-12-17T00:35:00.818Z,-17376.47
2022-12-17T00:36:21.938Z,-17374.81
2022-12-17T00:37:42.986Z,-17375.31
2022-12-17T00:39:04.107Z,-17375.31
2022-12-17T00:40:26.072Z,-17373.84
2022-12-17T00:41:47.266Z,-17374.16
2022-12-17T00:43:19.308Z,-18006.03
2022-12-17T00:44:42.388Z,-17376.13
2022-12-17T00:46:03.029Z,-17689.41
2022-12-17T00:47:24.032Z,-17374.34
2022-12-17T00:48:45.272Z,-17370.72
2022-12-17T00:50:07.712Z,-17370.56
2022-12-17T00:51:28.715Z,-17369.25
2022-12-17T00:52:49.697Z,-17054.91
2022-12-17T00:54:10.841Z,-17686.44
2022-12-17T00:55:31.736Z,-17685.94
2022-12-17T00:56:52.957Z,-17370.25
2022-12-17T00:58:17.320Z,-17054.75
2022-12-17T00:59:38.325Z,-17684.94
2022-12-17T01:00:59.349Z,-17053.63
2022-12-17T01:02:20.645Z,-17053.63
2022-12-17T01:03:42.045Z,-17054.75
2022-12-17T01:05:03.043Z,-17368.28
2022-12-17T01:06:24.169Z,-17368.28
2022-12-17T01:07:45.405Z,-17370.06
2022-12-17T01:09:06.644Z,-17056.19
2022-12-17T01:10:27.781Z,-17371.22
2022-12-17T01:11:48.887Z,-17369.75
2022-12-17T01:13:10.010Z,-17055.72
2022-12-17T01:14:31.251Z,-17055.22
2022-12-17T01:15:52.530Z,-17370.56
2022-12-17T01:17:14.691Z,-17370.25
2022-12-17T01:18:37.975Z,-17369.91
2022-12-17T01:19:59.212Z,-17367.28
2022-12-17T01:21:20.333Z,-17366.97
2022-12-17T01:22:41.457Z,-17368.28
2022-12-17T01:24:04.022Z,-17366.63
2022-12-17T01:25:25.746Z,-17365.97
2022-12-17T01:26:46.981Z,-17365.34
2022-12-17T01:28:08.943Z,-17996.25
2022-12-17T01:29:30.785Z,-17682.28
2022-12-17T01:30:51.547Z,-18311.59
2022-12-17T01:32:12.844Z,-17680.28
2022-12-17T01:33:34.216Z,-17680.94
2022-12-17T01:34:55.513Z,-17680.59
2022-12-17T01:36:17.479Z,-17679.28
2022-12-17T01:37:38.605Z,-17678.63
2022-12-17T01:39:00.207Z,-17676.94
2022-12-17T01:40:21.322Z,-17677.63
2022-12-17T01:41:42.564Z,-17677.28
2022-12-17T01:43:05.254Z,-17992.03
2022-12-17T01:45:03.812Z,-18306.78
2022-12-17T01:46:25.294Z,-17677.28
2022-12-17T01:47:51.346Z,-17992.53
2022-12-17T01:49:12.816Z,-17676.78
2022-12-17T01:50:35.859Z,-17360.41
2022-12-17T01:51:57.343Z,-17675.78
2022-12-17T01:53:21.588Z,-17675.94
2022-12-17T01:54:43.666Z,-17676.28
2022-12-17T01:56:05.266Z,-17676.13
2022-12-17T01:57:27.350Z,-17675.78
2022-12-17T01:58:50.036Z,-17675.94
2022-12-17T02:00:26.515Z,-18304.91
2022-12-17T02:01:48.182Z,-17044.75
2022-12-17T02:03:09.870Z,-17361.41
2022-12-17T02:04:31.564Z,-17362.06
2022-12-17T02:06:14.525Z,-17990.50
2022-12-17T02:07:57.846Z,-17990.00
2022-12-17T02:09:45.373Z,-17362.06
2022-12-17T02:11:18.852Z,-17675.94
2022-12-17T02:12:50.295Z,-17675.63
2022-12-17T02:14:26.659Z,-17361.06
2022-12-17T02:16:09.687Z,-17675.13
2022-12-17T02:17:37.232Z,-17361.06
2022-12-17T02:19:13.106Z,-17675.94
2022-12-17T02:20:53.548Z,-17361.72
2022-12-17T02:22:19.590Z,-16731.69
2022-12-17T02:23:56.528Z,-16730.72
2022-12-17T02:25:28.716Z,-16102.63
2022-12-17T02:26:55.361Z,-16730.41
2022-12-17T02:28:16.841Z,-16418.41
2022-12-17T02:29:40.841Z,-16419.34
2022-12-17T02:31:02.207Z,-16418.72
2022-12-17T02:32:26.261Z,-16419.03
2022-12-17T02:33:47.622Z,-15475.09
2022-12-17T02:35:08.982Z,-15159.81
2022-12-17T02:36:30.465Z,-15475.22
2022-12-17T02:37:53.147Z,-15474.78
2022-12-17T02:39:14.266Z,-15161.44
2022-12-17T02:40:41.639Z,-15789.63
2022-12-17T02:42:08.867Z,-15788.72
2022-12-17T02:43:30.667Z,-15160.56
2022-12-17T02:44:53.163Z,-15476.56
2022-12-17T02:46:17.556Z,-15474.94
2022-12-17T02:47:41.272Z,-15475.38
2022-12-17T02:49:02.753Z,-14532.63
2022-12-17T02:50:27.957Z,-14845.59
2022-12-17T02:51:49.433Z,-15160.13
2022-12-17T02:53:12.560Z,-14846.03
2022-12-17T02:54:33.474Z,-15161.44
2022-12-17T02:55:55.557Z,-14847.03
2022-12-17T02:57:16.562Z,-14847.75
2022-12-17T02:58:38.856Z,-14532.50
2022-12-17T02:59:59.760Z,-14846.31
2022-12-17T03:01:21.028Z,-15475.09
2022-12-17T03:02:42.472Z,-14531.38
2022-12-17T03:04:03.842Z,-14846.47
2022-12-17T03:05:44.603Z,-14532.91
2022-12-17T03:07:06.403Z,-14847.31
2022-12-17T03:08:27.845Z,-14848.19
2022-12-17T03:09:50.414Z,-14847.19
2022-12-17T03:11:12.486Z,-14849.47
2022-12-17T03:12:33.491Z,-14534.03
2022-12-17T03:13:54.492Z,-14850.59
2022-12-17T03:15:15.613Z,-14534.03
2022-12-17T03:16:38.097Z,-14534.59
2022-12-17T03:17:59.779Z,-14534.31
2022-12-17T03:19:21.257Z,-14848.31
2022-12-17T03:20:42.376Z,-14535.44
2022-12-17T03:22:03.495Z,-14535.31
2022-12-17T03:23:27.259Z,-15164.19
2022-12-17T03:24:48.503Z,-14850.88
2022-12-17T03:26:10.100Z,-14849.75
2022-12-17T03:27:31.582Z,-15164.19
2022-12-17T03:28:52.822Z,-14536.00
2022-12-17T03:30:14.185Z,-14535.16
2022-12-17T03:31:35.391Z,-14848.59
2022-12-17T03:32:56.548Z,-15164.63
2022-12-17T03:34:25.119Z,-15164.34
2022-12-17T03:35:46.722Z,-15164.34
2022-12-17T03:37:07.833Z,-15163.75
2022-12-17T03:38:30.635Z,-15478.66
2022-12-17T03:39:51.757Z,-15481.00
2022-12-17T03:41:13.004Z,-15481.91
2022-12-17T03:42:34.363Z,-15166.22
2022-12-17T03:43:55.606Z,-15481.91
2022-12-17T03:45:16.969Z,-15483.38
2022-12-17T03:46:38.089Z,-15798.06
2022-12-17T03:47:59.330Z,-15483.97
2022-12-17T03:49:20.692Z,-15167.25
2022-12-17T03:50:41.937Z,-15167.25
2022-12-17T03:52:03.419Z,-15165.50
2022-12-17T03:53:24.660Z,-15166.09
2022-12-17T03:54:46.025Z,-15481.00
2022-12-17T03:56:07.509Z,-15479.38
2022-12-17T03:57:29.110Z,-15479.81
2022-12-17T03:58:50.708Z,-15478.94
2022-12-17T04:00:12.073Z,-15165.50
2022-12-17T04:01:33.635Z,-15165.50
2022-12-17T04:02:55.367Z,-15480.13
2022-12-17T04:04:17.356Z,-15481.44
2022-12-17T04:05:38.846Z,-15166.38
2022-12-17T04:07:00.564Z,-15165.22
2022-12-17T04:08:21.924Z,-15164.63
2022-12-17T04:09:43.528Z,-15479.97
2022-12-17T04:11:05.248Z,-15480.13
2022-12-17T04:12:27.089Z,-15481.31
2022-12-17T04:13:48.959Z,-15481.00
2022-12-17T04:15:10.784Z,-15166.09
2022-12-17T04:16:32.377Z,-15481.00
2022-12-17T04:17:53.980Z,-15481.75
2022-12-17T04:19:15.584Z,-15796.56
2022-12-17T04:20:37.186Z,-15481.91
2022-12-17T04:21:59.024Z,-15796.72
2022-12-17T04:23:20.868Z,-15482.78
2022-12-17T04:24:42.830Z,-15798.06
2022-12-17T04:26:04.317Z,-16112.44
2022-12-17T04:27:25.915Z,-16429.78
2022-12-17T04:28:47.519Z,-16745.31
2022-12-17T04:30:13.560Z,-16431.34
2022-12-17T04:31:35.235Z,-16431.34
2022-12-17T04:32:56.645Z,-15801.69
2022-12-17T04:34:17.885Z,-15801.97
2022-12-17T04:35:38.893Z,-15802.59
2022-12-17T04:36:59.532Z,-16431.50
2022-12-17T04:38:20.652Z,-15803.19
2022-12-17T04:39:42.016Z,-15802.88
2022-12-17T04:41:03.311Z,-15804.09
2022-12-17T04:42:24.621Z,-15805.59
2022-12-17T04:43:45.913Z,-16120.41
2022-12-17T04:45:07.151Z,-16121.03
2022-12-17T04:46:28.373Z,-16436.94
2022-12-17T04:47:49.707Z,-16123.47
2022-12-17T04:49:11.070Z,-16438.34
2022-12-17T04:50:32.191Z,-16439.28
2022-12-17T04:51:53.359Z,-16438.97
2022-12-17T04:53:23.078Z,-17068.59
2022-12-17T04:54:43.875Z,-16438.81
2022-12-17T04:56:05.081Z,-16438.34
2022-12-17T04:57:26.000Z,-16438.97
2022-12-17T04:58:46.606Z,-16752.59
2022-12-17T05:00:07.764Z,-16439.59
2022-12-17T05:01:29.023Z,-16754.19
2022-12-17T05:02:50.375Z,-16754.97
2022-12-17T05:04:11.696Z,-16754.81
2022-12-17T05:05:32.842Z,-16756.09
2022-12-17T05:06:54.206Z,-16756.41
2022-12-17T05:08:15.808Z,-17071.50
2022-12-17T05:09:37.165Z,-16440.84
2022-12-17T05:10:58.408Z,-16757.66
2022-12-17T05:12:19.627Z,-16758.47
2022-12-17T05:13:40.890Z,-16758.94
2022-12-17T05:15:01.890Z,-16760.03
2022-12-17T05:16:22.933Z,-16758.47
2022-12-17T05:17:43.771Z,-16446.31
2022-12-17T05:19:04.889Z,-17076.81
2022-12-17T05:20:26.013Z,-16449.09
2022-12-17T05:21:47.256Z,-16448.31
2022-12-17T05:23:08.157Z,-16134.34
2022-12-17T05:24:29.017Z,-16764.31
2022-12-17T05:25:50.136Z,-16134.97
2022-12-17T05:27:11.375Z,-16133.28
2022-12-17T05:28:32.499Z,-16448.47
2022-12-17T05:29:53.616Z,-16450.50
2022-12-17T05:31:14.947Z,-16450.66
2022-12-17T05:32:36.235Z,-16450.81
2022-12-17T05:33:57.344Z,-16452.06
2022-12-17T05:35:18.468Z,-16451.59
2022-12-17T05:36:39.596Z,-16452.38
2022-12-17T05:38:00.710Z,-16451.75
2022-12-17T05:39:21.960Z,-16452.69
2022-12-17T05:40:43.195Z,-16454.72
2022-12-17T05:42:04.437Z,-16454.56
2022-12-17T05:43:29.757Z,-16770.19
2022-12-17T05:44:51.241Z,-16456.44
2022-12-17T05:46:12.390Z,-16455.66
2022-12-17T05:47:33.608Z,-16140.03
2022-12-17T05:48:55.687Z,-16455.50
2022-12-17T05:50:17.417Z,-16140.34
2022-12-17T05:51:39.733Z,-16142.47
2022-12-17T05:53:00.735Z,-15827.59
2022-12-17T05:54:22.217Z,-15829.09
2022-12-17T05:55:43.817Z,-15830.00
2022-12-17T05:57:05.429Z,-15829.41
2022-12-17T05:58:30.028Z,-16146.16
2022-12-17T05:59:51.625Z,-15831.50
2022-12-17T06:01:20.721Z,-16462.66
2022-12-17T06:02:42.695Z,-15832.41
2022-12-17T06:04:04.317Z,-15830.75
2022-12-17T06:05:25.955Z,-15830.59
2022-12-17T06:06:47.918Z,-15832.56
2022-12-17T06:08:09.521Z,-15832.72
2022-12-17T06:09:31.004Z,-15834.22
2022-12-17T06:10:52.726Z,-15834.97
2022-12-17T06:12:14.331Z,-15835.72
2022-12-17T06:13:37.816Z,-15836.34
2022-12-17T06:14:59.330Z,-15835.72
2022-12-17T06:16:21.094Z,-15836.03
2022-12-17T06:17:42.775Z,-15836.63
2022-12-17T06:19:04.511Z,-15836.63
2022-12-17T06:20:26.464Z,-16151.22
2022-12-17T06:21:48.300Z,-16150.59
2022-12-17T06:23:24.184Z,-16466.72
2022-12-17T06:24:46.403Z,-15836.63
2022-12-17T06:26:08.114Z,-15834.53
2022-12-17T06:27:29.949Z,-15836.94
2022-12-17T06:28:51.431Z,-15839.03
2022-12-17T06:30:18.480Z,-15838.28
2022-12-17T06:31:40.777Z,-15524.84
2022-12-17T06:33:02.600Z,-15525.88
2022-12-17T06:34:24.201Z,-15526.63
2022-12-17T06:35:45.924Z,-15842.38
2022-12-17T06:37:07.287Z,-15841.91
2022-12-17T06:38:28.528Z,-15524.56
2022-12-17T06:39:50.010Z,-15525.72
2022-12-17T06:41:11.972Z,-15528.53
2022-12-17T06:42:33.214Z,-15529.59
2022-12-17T06:43:54.628Z,-15527.50
2022-12-17T06:45:15.940Z,-15527.81
2022-12-17T06:46:37.152Z,-15527.50
2022-12-17T06:47:58.423Z,-15529.00
2022-12-17T06:49:19.473Z,-15529.59
2022-12-17T06:50:40.111Z,-15844.78
2022-12-17T06:52:01.551Z,-15529.88
2022-12-17T06:53:24.515Z,-15844.16
2022-12-17T06:54:45.634Z,-15530.19
2022-12-17T06:56:06.874Z,-15216.56
2022-12-17T06:57:28.237Z,-15217.31
2022-12-17T06:58:49.476Z,-15533.00
2022-12-17T07:00:10.478Z,-15533.00
2022-12-17T07:01:31.620Z,-15530.78
2022-12-17T07:02:52.561Z,-15531.38
2022-12-17T07:04:13.615Z,-15847.78
2022-12-17T07:05:34.812Z,-15531.66
2022-12-17T07:06:56.083Z,-15216.44
2022-12-17T07:08:18.256Z,-15533.72
2022-12-17T07:09:39.643Z,-15219.47
2022-12-17T07:11:00.886Z,-15218.75
2022-12-17T07:12:22.257Z,-15219.34
2022-12-17T07:13:43.365Z,-15220.06
2022-12-17T07:15:04.130Z,-15220.50
2022-12-17T07:16:25.030Z,-15851.41
2022-12-17T07:17:46.255Z,-15534.63
2022-12-17T07:19:07.489Z,-15535.50
2022-12-17T07:20:28.855Z,-15536.41
2022-12-17T07:21:49.969Z,-15534.91
2022-12-17T07:23:16.853Z,-16164.25
2022-12-17T07:24:38.214Z,-15848.25
2022-12-17T07:25:59.817Z,-15846.59
2022-12-17T07:27:21.053Z,-15846.88
2022-12-17T07:28:42.418Z,-15846.44
2022-12-17T07:30:03.656Z,-15847.47
2022-12-17T07:31:24.970Z,-15847.19
2022-12-17T07:32:46.138Z,-15846.59
2022-12-17T07:34:07.259Z,-15848.38
2022-12-17T07:35:28.751Z,-15849.91
2022-12-17T07:36:49.863Z,-15849.59
2022-12-17T07:38:21.785Z,-16479.19
2022-12-17T07:39:42.907Z,-16165.16
2022-12-17T07:41:04.041Z,-16165.47
2022-12-17T07:42:25.035Z,-16163.94
2022-12-17T07:43:51.287Z,-16165.94
2022-12-17T07:45:14.358Z,-16165.47
2022-12-17T07:46:35.599Z,-16166.69
2022-12-17T07:47:56.737Z,-16481.38
2022-12-17T07:49:21.366Z,-16481.69
2022-12-17T07:50:46.286Z,-16482.00
2022-12-17T07:52:07.409Z,-16482.78
2022-12-17T07:53:28.790Z,-16481.53
2022-12-17T07:54:50.132Z,-16798.41
2022-12-17T07:56:11.022Z,-17118.03
2022-12-17T07:57:32.144Z,-16806.94
2022-12-17T07:58:53.500Z,-16808.84
2022-12-17T08:00:22.910Z,-16487.00
2022-12-17T08:01:44.461Z,-16799.66
2022-12-17T08:03:06.337Z,-17112.72
2022-12-17T08:04:27.947Z,-17429.81
2022-12-17T08:05:49.430Z,-17429.31
2022-12-17T08:07:14.040Z,-17743.78
2022-12-17T08:08:35.756Z,-17741.78
2022-12-17T08:09:57.480Z,-18057.88
2022-12-17T08:11:18.962Z,-18059.56
2022-12-17T08:12:40.564Z,-18058.38
2022-12-17T08:14:02.285Z,-18375.03
2022-12-17T08:15:24.488Z,-18375.72
2022-12-17T08:16:46.109Z,-18375.72
2022-12-17T08:18:07.812Z,-18689.78
2022-12-17T08:19:29.533Z,-18685.94
2022-12-17T08:20:51.375Z,-18686.47
2022-12-17T08:22:12.979Z,-18999.75
2022-12-17T08:23:35.016Z,-18683.34
2022-12-17T08:25:00.385Z,-19001.84
2022-12-17T08:26:22.347Z,-19001.69
2022-12-17T08:27:43.947Z,-19001.31
2022-12-17T08:29:05.909Z,-18999.22
2022-12-17T08:30:28.021Z,-18999.91
2022-12-17T08:31:49.713Z,-19314.91
2022-12-17T08:33:11.316Z,-19312.22
2022-12-17T08:34:33.038Z,-19308.09
2022-12-17T08:35:54.520Z,-19307.22
2022-12-17T08:37:16.128Z,-19309.91
2022-12-17T08:38:37.484Z,-19310.81
2022-12-17T08:39:58.605Z,-19313.31
2022-12-17T08:41:20.448Z,-19314.03
2022-12-17T08:42:41.745Z,-19000.28
2022-12-17T08:44:03.173Z,-19000.63
2022-12-17T08:45:24.944Z,-18999.75
2022-12-17T08:46:46.068Z,-19000.44
2022-12-17T08:48:07.431Z,-18999.75
2022-12-17T08:49:28.861Z,-18688.22
2022-12-17T08:50:50.108Z,-18684.72
2022-12-17T08:52:11.389Z,-18684.56
2022-12-17T08:53:35.007Z,-18685.06
2022-12-17T08:54:56.629Z,-18680.19
2022-12-17T08:56:17.995Z,-18679.50
2022-12-17T08:57:39.356Z,-18997.09
2022-12-17T08:59:00.675Z,-19312.59
2022-12-17T09:00:22.682Z,-19315.47
2022-12-17T09:01:43.893Z,-19316.72
2022-12-17T09:03:04.999Z,-19318.69
2022-12-17T09:04:26.398Z,-19321.72
2022-12-17T09:05:47.608Z,-19321.38
2022-12-17T09:07:09.004Z,-19321.00
2022-12-17T09:08:30.239Z,-19319.03
2022-12-17T09:09:51.454Z,-19634.81
2022-12-17T09:11:12.337Z,-19637.91
2022-12-17T09:12:33.362Z,-19954.13
2022-12-17T09:13:54.734Z,-19952.47
2022-12-17T09:15:15.964Z,-19953.19
2022-12-17T09:16:37.389Z,-19952.09
2022-12-17T09:17:58.574Z,-19316.19
2022-12-17T09:19:20.807Z,-18684.03
2022-12-17T09:20:42.369Z,-18365.41
2022-12-17T09:22:03.740Z,-17419.34
2022-12-17T09:23:24.970Z,-17419.81
2022-12-17T09:24:46.092Z,-16785.88
2022-12-17T09:26:15.012Z,-16786.81
2022-12-17T09:27:36.133Z,-16155.06
2022-12-17T09:28:57.374Z,-16154.59
2022-12-17T09:30:18.864Z,-16154.75
2022-12-17T09:31:40.101Z,-16467.97
2022-12-17T09:33:01.338Z,-16470.47
2022-12-17T09:34:22.463Z,-16470.78
2022-12-17T09:35:43.700Z,-16787.78
2022-12-17T09:37:05.539Z,-16789.69
2022-12-17T09:38:30.863Z,-17105.47
2022-12-17T09:39:52.004Z,-16790.63
2022-12-17T09:41:13.468Z,-16476.38
2022-12-17T09:43:30.028Z,-16791.56
2022-12-17T09:45:07.832Z,-16791.41
2022-12-17T09:46:41.115Z,-16474.81
2022-12-17T09:48:32.763Z,-16793.47
2022-12-17T09:49:53.921Z,-16795.22
2022-12-17T09:51:14.924Z,-16478.88
2022-12-17T09:52:45.892Z,-16796.00
2022-12-17T09:54:10.627Z,-16482.16
2022-12-17T09:56:09.892Z,-16168.38
2022-12-17T09:57:35.829Z,-15536.09
2022-12-17T09:58:59.099Z,-15221.09
2022-12-17T10:00:29.579Z,-14905.91
2022-12-17T10:01:55.045Z,-14905.06
2022-12-17T10:03:16.830Z,-14274.28
2022-12-17T10:04:41.123Z,-13957.06
2022-12-17T10:06:05.827Z,-13642.31
2022-12-17T10:07:58.149Z,-13643.13
2022-12-17T10:09:22.035Z,-13643.78
2022-12-17T10:10:51.320Z,-13330.38
2022-12-17T10:12:13.515Z,-13328.97
2022-12-17T10:13:38.451Z,-13330.91
2022-12-17T10:15:00.215Z,-13016.28
2022-12-17T10:16:22.347Z,-13017.56
2022-12-17T10:17:44.126Z,-12067.91
2022-12-17T10:19:06.807Z,-11436.47
2022-12-17T10:20:40.529Z,-11437.38
2022-12-17T10:22:02.252Z,-11120.41
2022-12-17T10:23:23.855Z,-11121.09
2022-12-17T10:24:45.456Z,-10806.59
2022-12-17T10:26:12.700Z,-10490.22
2022-12-17T10:27:38.983Z,-10491.50
2022-12-17T10:29:00.702Z,-10492.69
2022-12-17T10:30:22.308Z,-9860.97
2022-12-17T10:31:49.191Z,-10176.31
2022-12-17T10:33:16.432Z,-9546.03
2022-12-17T10:34:40.553Z,-9227.31
2022-12-17T10:36:02.035Z,-9227.81
2022-12-17T10:37:25.322Z,-8911.88
2022-12-17T10:38:49.320Z,-9228.09
2022-12-17T10:40:19.329Z,-9544.94
2022-12-17T10:41:44.407Z,-9546.34
2022-12-17T10:43:05.889Z,-8913.91
2022-12-17T10:44:49.930Z,-8914.56
2022-12-17T10:46:15.334Z,-9231.25
2022-12-17T10:47:44.534Z,-8599.84
2022-12-17T10:49:11.008Z,-8600.13
2022-12-17T10:50:41.946Z,-8284.31
2022-12-17T10:52:03.141Z,-7969.16
2022-12-17T10:53:37.499Z,-7969.00
2022-12-17T10:54:59.066Z,-7337.53
2022-12-17T10:56:20.352Z,-7338.03
2022-12-17T10:57:54.678Z,-7021.44
2022-12-17T10:59:15.550Z,-7337.53
2022-12-17T11:00:36.436Z,-7022.00
2022-12-17T11:01:59.375Z,-6706.59
2022-12-17T11:03:21.040Z,-7023.38
2022-12-17T11:04:48.211Z,-6706.44
2022-12-17T11:06:13.379Z,-7338.19
2022-12-17T11:07:48.168Z,-7338.66
2022-12-17T11:09:09.636Z,-6706.97
2022-12-17T11:10:37.758Z,-7338.91
2022-12-17T11:12:04.168Z,-7024.09
2022-12-17T11:13:37.275Z,-6707.72
2022-12-17T11:15:06.804Z,-6074.34
2022-12-17T11:16:51.900Z,-6705.59
2022-12-17T11:18:12.953Z,-7020.81
2022-12-17T11:20:09.332Z,-7336.56
2022-12-17T11:21:45.327Z,-7336.75
2022-12-17T11:23:17.255Z,-7650.84
2022-12-17T11:24:53.608Z,-7966.09
2022-12-17T11:26:33.688Z,-8283.41
2022-12-17T11:28:01.531Z,-8599.03
2022-12-17T11:29:23.010Z,-8600.31
2022-12-17T11:30:46.380Z,-8916.06
2022-12-17T11:32:19.534Z,-8917.38
2022-12-17T11:33:48.815Z,-8917.66
2022-12-17T11:35:22.175Z,-8601.22
2022-12-17T11:37:09.341Z,-8918.69
2022-12-17T11:38:43.897Z,-9235.59
2022-12-17T11:40:20.747Z,-9236.56
2022-12-17T11:42:00.345Z,-8921.31
2022-12-17T11:43:36.474Z,-9555.63
2022-12-17T11:45:21.001Z,-8923.66
2022-12-17T11:46:51.027Z,-8924.22
2022-12-17T11:48:17.755Z,-8291.88
2022-12-17T11:50:33.839Z,-8608.31
2022-12-17T11:51:59.888Z,-8609.75
2022-12-17T11:53:29.189Z,-8927.28
2022-12-17T11:55:16.567Z,-8611.59
2022-12-17T11:56:40.567Z,-8295.44
2022-12-17T11:58:01.807Z,-7662.66
2022-12-17T11:59:35.051Z,-8295.94
2022-12-17T12:01:09.974Z,-8296.13
2022-12-17T12:02:48.192Z,-8296.84
2022-12-17T12:04:27.501Z,-8297.63
2022-12-17T12:06:04.473Z,-7665.81
2022-12-17T12:07:54.985Z,-7982.09
2022-12-17T12:09:32.189Z,-7032.13
2022-12-17T12:11:11.432Z,-7664.47
2022-12-17T12:13:07.953Z,-7981.69
2022-12-17T12:15:18.396Z,-7982.53
2022-12-17T12:17:13.840Z,-7982.53
2022-12-17T12:18:43.602Z,-7982.53
2022-12-17T12:20:13.366Z,-7981.75
2022-12-17T12:22:07.851Z,-8296.47
2022-12-17T12:23:43.612Z,-8613.59
2022-12-17T12:25:34.976Z,-8614.13
2022-12-17T12:27:19.016Z,-9247.13
2022-12-17T12:28:51.902Z,-8930.94
2022-12-17T12:30:37.022Z,-8614.66
2022-12-17T12:32:13.386Z,-8931.88
2022-12-17T12:33:34.626Z,-8930.75
2022-12-17T12:34:58.032Z,-8298.94
2022-12-17T12:36:22.750Z,-8931.50
2022-12-17T12:37:44.593Z,-8615.59
2022-12-17T12:39:13.156Z,-9247.97
2022-12-17T12:40:34.398Z,-9249.31
2022-12-17T12:42:15.321Z,-9883.47
2022-12-17T12:43:50.125Z,-9884.47
2022-12-17T12:45:23.317Z,-9885.91
2022-12-17T12:47:03.331Z,-9569.22
2022-12-17T12:48:29.490Z,-9252.59
2022-12-17T12:50:06.743Z,-9253.75
2022-12-17T12:51:42.865Z,-9570.63
2022-12-17T12:53:04.469Z,-9255.09
2022-12-17T12:54:48.109Z,-8622.13
2022-12-17T12:56:09.462Z,-8620.66
2022-12-17T12:57:52.108Z,-8937.94
2022-12-17T12:59:13.468Z,-8938.22
2022-12-17T13:00:43.668Z,-8621.41
2022-12-17T13:02:05.310Z,-8620.56
2022-12-17T13:03:39.622Z,-8936.44
2022-12-17T13:05:01.796Z,-9570.72
2022-12-17T13:06:04.719Z,-9570.22
2022-12-17T13:07:21.482Z,-9887.00
2022-12-17T13:08:24.639Z,-9570.72
2022-12-17T13:09:32.329Z,-9252.41
2022-12-17T13:10:37.840Z,-9252.69
2022-12-17T13:11:44.444Z,-9252.03
2022-12-17T13:12:48.131Z,-9250.88
2022-12-17T13:13:57.133Z,-9567.06
2022-12-17T13:15:10.241Z,-9883.56
2022-12-17T13:16:42.764Z,-10200.09
2022-12-17T13:17:57.881Z,-10198.63
2022-12-17T13:19:17.541Z,-10516.13
2022-12-17T13:20:32.206Z,-10516.53
2022-12-17T13:21:36.166Z,-10198.22
2022-12-17T13:22:52.724Z,-10515.47
2022-12-17T13:23:55.492Z,-10199.38
2022-12-17T13:25:19.247Z,-10833.09
2022-12-17T13:26:44.687Z,-11149.47
2022-12-17T13:27:48.056Z,-10834.09
2022-12-17T13:28:56.634Z,-11467.09
2022-12-17T13:30:17.573Z,-11785.03
2022-12-17T13:31:22.068Z,-11786.19
2022-12-17T13:32:33.772Z,-11787.13
2022-12-17T13:33:51.176Z,-11469.84
2022-12-17T13:35:25.497Z,-11787.94
2022-12-17T13:36:46.621Z,-11472.81
2022-12-17T13:38:09.899Z,-10207.78
2022-12-17T13:39:24.558Z,-10206.53
2022-12-17T13:41:17.698Z,-10840.41
2022-12-17T13:42:33.064Z,-10525.06
2022-12-17T13:43:41.224Z,-10208.41
2022-12-17T13:44:47.707Z,-9891.47
2022-12-17T13:45:57.579Z,-9574.38
2022-12-17T13:47:08.195Z,-9257.59
2022-12-17T13:48:29.024Z,-9257.00
2022-12-17T13:49:35.007Z,-9256.34
2022-12-17T13:50:39.053Z,-9255.28
2022-12-17T13:51:42.435Z,-9255.84
2022-12-17T13:52:46.473Z,-9889.53
2022-12-17T13:53:58.648Z,-10206.00
2022-12-17T13:55:10.898Z,-10205.91
2022-12-17T13:56:14.361Z,-9890.16
2022-12-17T13:57:23.366Z,-10207.16
2022-12-17T13:58:35.382Z,-10522.72
2022-12-17T13:59:38.367Z,-10207.16
2022-12-17T14:00:41.133Z,-10207.16
2022-12-17T14:01:46.926Z,-10523.88
2022-12-17T14:02:50.359Z,-10206.94
2022-12-17T14:04:06.184Z,-10205.91
2022-12-17T14:05:24.941Z,-10521.44
2022-12-17T14:06:37.065Z,-10521.75
2022-12-17T14:07:41.145Z,-10521.97
2022-12-17T14:08:44.633Z,-10203.84
2022-12-17T14:09:49.184Z,-10519.53
2022-12-17T14:11:14.867Z,-10202.16
2022-12-17T14:12:22.597Z,-10516.97
2022-12-17T14:13:25.790Z,-10516.53
2022-12-17T14:14:57.475Z,-10832.34
2022-12-17T14:16:00.594Z,-10832.34
2022-12-17T14:17:04.379Z,-10831.91
2022-12-17T14:18:16.557Z,-11147.69
2022-12-17T14:19:19.683Z,-11147.56
2022-12-17T14:20:25.801Z,-11463.31
2022-12-17T14:21:30.003Z,-11462.41
2022-12-17T14:22:39.005Z,-11777.53
2022-12-17T14:23:42.844Z,-11778.59
2022-12-17T14:24:46.687Z,-11778.12
2022-12-17T14:25:49.809Z,-12094.06
2022-12-17T14:26:55.691Z,-11777.66
2022-12-17T14:28:05.895Z,-12093.00
2022-12-17T14:29:13.940Z,-12093.00
2022-12-17T14:31:17.156Z,-12409.16
2022-12-17T14:32:30.772Z,-12724.44
2022-12-17T14:33:36.747Z,-13040.59
2022-12-17T14:34:43.464Z,-13356.63
2022-12-17T14:35:53.064Z,-13356.91
2022-12-17T14:37:00.151Z,-13356.38
2022-12-17T14:38:04.470Z,-13356.91
2022-12-17T14:39:19.955Z,-13672.66
2022-12-17T14:40:24.993Z,-13671.75
2022-12-17T14:41:48.399Z,-13988.28
2022-12-17T14:42:52.718Z,-13988.81
2022-12-17T14:43:57.880Z,-14304.56
2022-12-17T14:45:07.967Z,-13990.03
2022-12-17T14:46:21.478Z,-13988.69
2022-12-17T14:47:32.926Z,-13353.78
2022-12-17T14:48:54.003Z,-13036.78
2022-12-17T14:50:24.290Z,-13667.38
2022-12-17T14:51:42.823Z,-13350.13
2022-12-17T14:52:50.693Z,-13666.69
2022-12-17T14:53:53.335Z,-13665.63
2022-12-17T14:54:55.905Z,-13982.06
2022-12-17T14:55:59.219Z,-13983.56
2022-12-17T14:57:05.866Z,-14299.91
2022-12-17T14:58:14.961Z,-14616.41
2022-12-17T14:59:38.360Z,-14615.69
2022-12-17T15:01:09.177Z,-14616.25
2022-12-17T15:02:17.697Z,-14616.25
2022-12-17T15:03:30.005Z,-14616.53
2022-12-17T15:04:33.231Z,-14616.53
2022-12-17T15:05:36.236Z,-14617.09
2022-12-17T15:06:38.755Z,-14300.72
2022-12-17T15:07:41.846Z,-14615.84
2022-12-17T15:08:49.554Z,-14931.19
2022-12-17T15:09:53.123Z,-14616.53
2022-12-17T15:10:55.765Z,-14930.78
2022-12-17T15:11:58.408Z,-14931.47
2022-12-17T15:13:01.199Z,-14931.78
2022-12-17T15:14:04.409Z,-14932.63
2022-12-17T15:15:07.573Z,-14931.78
2022-12-17T15:16:11.132Z,-14615.13
2022-12-17T15:17:14.280Z,-14297.00
2022-12-17T15:18:16.806Z,-14297.97
2022-12-17T15:19:19.442Z,-14613.59
2022-12-17T15:20:22.178Z,-14297.97
2022-12-17T15:21:25.931Z,-14613.03
2022-12-17T15:22:28.688Z,-14297.69
2022-12-17T15:23:32.042Z,-14612.03
2022-12-17T15:24:34.565Z,-14296.19
2022-12-17T15:25:43.663Z,-14296.03
2022-12-17T15:26:49.109Z,-14612.03
2022-12-17T15:27:51.850Z,-14611.50
2022-12-17T15:28:54.491Z,-14610.94
2022-12-17T15:29:57.015Z,-14610.38
2022-12-17T15:30:59.693Z,-14610.38
2022-12-17T15:32:02.888Z,-14610.66
2022-12-17T15:33:06.738Z,-14926.34
2022-12-17T15:34:11.303Z,-14927.78
2022-12-17T15:35:15.250Z,-14927.78
2022-12-17T15:36:17.895Z,-14927.47
2022-12-17T15:37:25.430Z,-14925.34
2022-12-17T15:38:28.214Z,-14925.78